createdAt,value
2018-12-24T00:00:01.466Z,100860.91
2018-12-24T00:02:32.127Z,100860.48
2018-12-24T00:05:00.663Z,100875.40
2018-12-24T00:07:28.543Z,100875.57
2018-12-24T00:09:56.714Z,100883.15
2018-12-24T00:12:24.882Z,100890.97
2018-12-24T00:14:53.050Z,100895.04
2018-12-24T00:17:21.110Z,100900.02
2018-12-24T00:19:48.507Z,100900.58
2018-12-24T00:22:16.418Z,100907.29
2018-12-24T00:24:44.170Z,100910.09
2018-12-24T00:27:11.982Z,100911.00
2018-12-24T00:29:39.175Z,100917.84
2018-12-24T00:32:06.991Z,100921.63
2018-12-24T00:34:34.763Z,100926.80
2018-12-24T00:37:02.285Z,100926.19
2018-12-24T00:39:29.434Z,100928.83
2018-12-24T00:41:56.658Z,100935.63
2018-12-24T00:44:25.195Z,100943.64
2018-12-24T00:46:52.748Z,100949.88
2018-12-24T00:49:21.036Z,100951.06
2018-12-24T00:51:49.030Z,100961.16
2018-12-24T00:54:16.735Z,100969.27
2018-12-24T00:56:44.674Z,100978.42
2018-12-24T00:59:12.116Z,100980.32
2018-12-24T01:01:39.916Z,100984.66
2018-12-24T01:04:08.856Z,100993.50
2018-12-24T01:06:36.902Z,100997.28
2018-12-24T01:09:05.437Z,101004.11
2018-12-24T01:11:33.306Z,101008.31
2018-12-24T01:14:01.016Z,101020.84
2018-12-24T01:16:28.690Z,101024.47
2018-12-24T01:18:55.810Z,101027.30
2018-12-24T01:21:23.528Z,101032.18
2018-12-24T01:23:52.003Z,101039.05
2018-12-24T01:26:19.669Z,101042.22
2018-12-24T01:28:48.276Z,101045.26
2018-12-24T01:31:16.128Z,101052.16
2018-12-24T01:33:43.571Z,101057.20
2018-12-24T01:36:11.614Z,101064.73
2018-12-24T01:38:39.284Z,101061.55
2018-12-24T01:41:06.540Z,101075.41
2018-12-24T01:43:35.053Z,101076.94
2018-12-24T01:46:02.585Z,101084.60
2018-12-24T01:48:29.958Z,101091.39
2018-12-24T01:50:58.404Z,101093.02
2018-12-24T01:53:26.235Z,101096.39
2018-12-24T01:55:53.620Z,101104.87
2018-12-24T01:58:21.689Z,101112.78
2018-12-24T02:00:49.599Z,101126.94
2018-12-24T02:03:17.404Z,101125.23
2018-12-24T02:05:45.016Z,101133.56
2018-12-24T02:08:12.404Z,101137.48
2018-12-24T02:10:39.556Z,101129.61
2018-12-24T02:13:07.174Z,101138.85
2018-12-24T02:15:34.583Z,101148.67
2018-12-24T02:18:02.598Z,101151.63
2018-12-24T02:20:30.003Z,101155.94
2018-12-24T02:22:57.142Z,101169.24
2018-12-24T02:25:24.922Z,101173.89
2018-12-24T02:27:52.723Z,101179.42
2018-12-24T02:30:19.861Z,101184.33
2018-12-24T02:32:47.240Z,101187.40
2018-12-24T02:35:14.383Z,101195.48
2018-12-24T02:37:41.769Z,101200.05
2018-12-24T02:40:10.371Z,101197.98
2018-12-24T02:42:38.206Z,101202.08
2018-12-24T02:45:05.583Z,101210.78
2018-12-24T02:47:32.731Z,101216.73
2018-12-24T02:50:00.229Z,101218.84
2018-12-24T02:52:28.654Z,101217.92
2018-12-24T02:54:56.082Z,101226.28
2018-12-24T02:57:24.348Z,101226.14
2018-12-24T02:59:51.739Z,101224.75
2018-12-24T03:02:54.497Z,101233.30
2018-12-24T03:05:21.671Z,101248.48
2018-12-24T03:07:48.362Z,101256.19
2018-12-24T03:10:15.602Z,101257.25
2018-12-24T03:12:42.631Z,101272.44
2018-12-24T03:15:09.306Z,101271.66
2018-12-24T03:17:35.978Z,101278.73
2018-12-24T03:20:02.815Z,101282.47
2018-12-24T03:22:30.099Z,101275.50
2018-12-24T03:24:58.357Z,101290.59
2018-12-24T03:27:25.314Z,101299.30
2018-12-24T03:29:53.205Z,101295.25
2018-12-24T03:32:20.662Z,101311.09
2018-12-24T03:34:48.647Z,101316.55
2018-12-24T03:37:15.425Z,101316.98
2018-12-24T03:39:43.021Z,101327.22
2018-12-24T03:42:10.330Z,101336.03
2018-12-24T03:44:38.258Z,101338.39
2018-12-24T03:47:05.696Z,101341.69
2018-12-24T03:49:32.664Z,101349.47
2018-12-24T03:51:59.574Z,101353.77
2018-12-24T03:54:26.767Z,101355.06
2018-12-24T03:56:53.444Z,101347.69
2018-12-24T03:59:21.347Z,101361.19
2018-12-24T04:01:48.482Z,101369.37
2018-12-24T04:04:16.587Z,101373.92
2018-12-24T04:06:44.038Z,101380.27
2018-12-24T04:09:10.703Z,101384.44
2018-12-24T04:11:38.232Z,101389.59
2018-12-24T04:14:06.484Z,101383.98
2018-12-24T04:16:33.984Z,101393.83
2018-12-24T04:19:00.754Z,101399.63
2018-12-24T04:21:29.201Z,101398.23
2018-12-24T04:23:56.492Z,101407.32
2018-12-24T04:26:23.601Z,101413.92
2018-12-24T04:28:50.984Z,101410.97
2018-12-24T04:31:17.670Z,101421.33
2018-12-24T04:33:45.148Z,101424.38
2018-12-24T04:36:12.693Z,101430.35
2018-12-24T04:38:40.666Z,101428.99
2018-12-24T04:41:08.010Z,101435.36
2018-12-24T04:43:35.330Z,101437.47
2018-12-24T04:46:02.317Z,101438.30
2018-12-24T04:48:29.978Z,101430.89
2018-12-24T04:50:57.339Z,101432.47
2018-12-24T04:53:25.517Z,101447.70
2018-12-24T04:55:52.266Z,101454.84
2018-12-24T04:58:20.025Z,101464.77
2018-12-24T05:00:46.691Z,101475.93
2018-12-24T05:03:15.186Z,101485.72
2018-12-24T05:05:44.668Z,101495.48
2018-12-24T05:08:11.903Z,101506.48
2018-12-24T05:10:40.347Z,101523.80
2018-12-24T05:13:07.755Z,101454.16
2018-12-24T05:15:35.294Z,101545.68
2018-12-24T05:18:02.213Z,101564.75
2018-12-24T05:20:30.076Z,101566.37
2018-12-24T05:22:58.062Z,101570.45
2018-12-24T05:25:25.613Z,101579.27
2018-12-24T05:27:53.381Z,101593.08
2018-12-24T05:30:20.850Z,101601.41
2018-12-24T05:32:48.234Z,101607.23
2018-12-24T05:35:15.609Z,101612.36
2018-12-24T05:37:42.866Z,101616.59
2018-12-24T05:40:09.845Z,101628.07
2018-12-24T05:42:37.399Z,101620.85
2018-12-24T05:45:05.181Z,101636.38
2018-12-24T05:47:32.418Z,101644.50
2018-12-24T05:50:00.610Z,101652.44
2018-12-24T05:52:27.521Z,101657.22
2018-12-24T05:54:55.003Z,101662.50
2018-12-24T05:57:22.111Z,101668.16
2018-12-24T05:59:48.773Z,101675.77
2018-12-24T06:02:15.870Z,101687.94
2018-12-24T06:04:42.799Z,101692.37
2018-12-24T06:07:09.535Z,101702.97
2018-12-24T06:09:36.199Z,101705.25
2018-12-24T06:12:03.190Z,101711.47
2018-12-24T06:14:30.154Z,101717.97
2018-12-24T06:16:56.841Z,101716.73
2018-12-24T06:19:23.517Z,101724.70
2018-12-24T06:21:50.488Z,101729.45
2018-12-24T06:24:17.144Z,101733.52
2018-12-24T06:26:43.818Z,101744.81
2018-12-24T06:29:10.902Z,101743.61
2018-12-24T06:31:38.029Z,101761.25
2018-12-24T06:34:05.825Z,101763.72
2018-12-24T06:36:32.893Z,101776.44
2018-12-24T06:38:59.850Z,101780.16
2018-12-24T06:41:27.452Z,101789.53
2018-12-24T06:43:55.943Z,101795.55
2018-12-24T06:46:22.704Z,101804.15
2018-12-24T06:48:50.862Z,101810.01
2018-12-24T06:51:18.415Z,101809.67
2018-12-24T06:53:45.453Z,101812.14
2018-12-24T06:56:12.390Z,101806.47
2018-12-24T06:58:39.246Z,101805.59
2018-12-24T07:01:06.322Z,101816.52
2018-12-24T07:03:33.332Z,101807.00
2018-12-24T07:06:00.502Z,101805.59
2018-12-24T07:08:27.530Z,101806.32
2018-12-24T07:10:54.642Z,101812.13
2018-12-24T07:13:21.849Z,101814.41
2018-12-24T07:15:49.161Z,101811.08
2018-12-24T07:18:16.053Z,101816.22
2018-12-24T07:20:43.600Z,101824.69
2018-12-24T07:23:10.658Z,101821.68
2018-12-24T07:25:37.796Z,101832.64
2018-12-24T07:28:04.725Z,101840.06
2018-12-24T07:30:32.002Z,101838.62
2018-12-24T07:32:59.850Z,101846.77
2018-12-24T07:35:27.718Z,101845.03
2018-12-24T07:37:55.181Z,101855.22
2018-12-24T07:40:21.845Z,101862.99
2018-12-24T07:42:48.788Z,101870.80
2018-12-24T07:45:15.786Z,101878.20
2018-12-24T07:47:43.043Z,101886.84
2018-12-24T07:50:10.726Z,101879.05
2018-12-24T07:52:38.386Z,101883.47
2018-12-24T07:55:06.771Z,101893.69
2018-12-24T07:57:34.049Z,101897.02
2018-12-24T08:00:00.962Z,101906.02
2018-12-24T08:02:27.937Z,101912.20
2018-12-24T08:04:55.442Z,101923.23
2018-12-24T08:07:22.354Z,101926.08
2018-12-24T08:09:49.773Z,101944.31
2018-12-24T08:12:17.823Z,101946.19
2018-12-24T08:14:45.300Z,101947.26
2018-12-24T08:17:12.245Z,101960.83
2018-12-24T08:19:39.582Z,101956.60
2018-12-24T08:22:06.236Z,101968.62
2018-12-24T08:24:33.246Z,101974.26
2018-12-24T08:27:00.456Z,101976.16
2018-12-24T08:29:27.382Z,101982.49
2018-12-24T08:31:54.175Z,101994.84
2018-12-24T08:34:21.157Z,101998.42
2018-12-24T08:36:47.819Z,102012.19
2018-12-24T08:39:15.107Z,102009.72
2018-12-24T08:41:42.803Z,102009.72
2018-12-24T08:44:10.464Z,102012.39
2018-12-24T08:46:38.169Z,102023.92
2018-12-24T08:49:05.906Z,102025.09
2018-12-24T08:51:32.598Z,102033.00
2018-12-24T08:54:00.398Z,102033.00
2018-12-24T08:56:29.181Z,102044.55
2018-12-24T08:58:55.665Z,102043.97
2018-12-24T09:01:23.594Z,102053.73
2018-12-24T09:03:50.304Z,102048.08
2018-12-24T09:06:17.335Z,102044.74
2018-12-24T09:08:44.006Z,102052.82
2018-12-24T09:11:11.394Z,102058.14
2018-12-24T09:13:38.059Z,102057.10
2018-12-24T09:16:04.726Z,102057.13
2018-12-24T09:18:31.677Z,102055.74
2018-12-24T09:20:58.905Z,102058.36
2018-12-24T09:23:25.618Z,102063.38
2018-12-24T09:25:52.667Z,102061.28
2018-12-24T09:28:19.941Z,102065.01
2018-12-24T09:30:49.850Z,102070.96
2018-12-24T09:33:16.891Z,102077.17
2018-12-24T09:35:44.708Z,102069.88
2018-12-24T09:38:12.674Z,102075.68
2018-12-24T09:40:39.909Z,102074.14
2018-12-24T09:43:07.581Z,102093.60
2018-12-24T09:45:34.470Z,102087.97
2018-12-24T09:48:01.386Z,102089.53
2018-12-24T09:50:28.330Z,102080.61
2018-12-24T09:52:55.322Z,102093.73
2018-12-24T09:55:22.951Z,102081.52
2018-12-24T09:57:50.895Z,102082.20
2018-12-24T10:00:18.380Z,102092.69
2018-12-24T10:02:53.346Z,102093.00
2018-12-24T10:05:22.612Z,102095.34
2018-12-24T10:07:49.511Z,102094.72
2018-12-24T10:10:18.147Z,102104.59
2018-12-24T10:12:45.445Z,102104.20
2018-12-24T10:15:13.647Z,102107.43
2018-12-24T10:17:41.096Z,102111.71
2018-12-24T10:20:08.231Z,102114.16
2018-12-24T10:22:34.892Z,102116.47
2018-12-24T10:25:02.186Z,102115.07
2018-12-24T10:27:30.431Z,102124.98
2018-12-24T10:29:57.543Z,102120.19
2018-12-24T10:32:25.322Z,102123.04
2018-12-24T10:34:54.230Z,102122.67
2018-12-24T10:37:21.224Z,102131.72
2018-12-24T10:39:48.408Z,102144.45
2018-12-24T10:42:15.366Z,102141.59
2018-12-24T10:44:42.803Z,102143.88
2018-12-24T10:47:09.482Z,102150.28
2018-12-24T10:49:36.166Z,102144.82
2018-12-24T10:52:02.941Z,102138.42
2018-12-24T10:54:29.636Z,102139.67
2018-12-24T10:56:56.999Z,102140.75
2018-12-24T10:59:24.121Z,102136.15
2018-12-24T11:01:51.403Z,102135.44
2018-12-24T11:04:18.092Z,102140.95
2018-12-24T11:06:45.707Z,102136.15
2018-12-24T11:09:12.410Z,102136.31
2018-12-24T11:11:39.113Z,102148.72
2018-12-24T11:14:06.455Z,102148.72
2018-12-24T11:16:33.665Z,102143.77
2018-12-24T11:19:01.377Z,102144.84
2018-12-24T11:21:28.630Z,102153.52
2018-12-24T11:23:55.565Z,102142.88
2018-12-24T11:26:22.562Z,102143.76
2018-12-24T11:28:50.470Z,102139.16
2018-12-24T11:31:17.693Z,102131.92
2018-12-24T11:33:45.199Z,102120.40
2018-12-24T11:36:11.887Z,102127.12
2018-12-24T11:38:38.837Z,102124.13
2018-12-24T11:41:05.494Z,102123.59
2018-12-24T11:43:32.389Z,102134.91
2018-12-24T11:45:59.734Z,102129.44
2018-12-24T11:48:26.650Z,102125.16
2018-12-24T11:50:53.954Z,102117.20
2018-12-24T11:53:20.965Z,102125.16
2018-12-24T11:55:48.239Z,102134.20
2018-12-24T11:58:16.769Z,102131.91
2018-12-24T12:00:43.921Z,102137.38
2018-12-24T12:03:12.758Z,102148.55
2018-12-24T12:05:39.753Z,102151.20
2018-12-24T12:08:07.326Z,102147.67
2018-12-24T12:10:34.557Z,102137.59
2018-12-24T12:13:02.019Z,102154.04
2018-12-24T12:15:29.748Z,102141.31
2018-12-24T12:17:56.640Z,102130.84
2018-12-24T12:20:24.209Z,102142.00
2018-12-24T12:22:51.437Z,102136.14
2018-12-24T12:25:18.246Z,102154.38
2018-12-24T12:27:44.944Z,102163.09
2018-12-24T12:30:12.719Z,102156.70
2018-12-24T12:32:39.620Z,102161.83
2018-12-24T12:35:06.886Z,102163.26
2018-12-24T12:37:33.977Z,102171.03
2018-12-24T12:40:00.636Z,102173.34
2018-12-24T12:42:27.546Z,102167.69
2018-12-24T12:44:55.112Z,102161.63
2018-12-24T12:47:22.179Z,102153.30
2018-12-24T12:49:49.159Z,102155.30
2018-12-24T12:52:16.687Z,102158.47
2018-12-24T12:54:43.321Z,102157.43
2018-12-24T12:57:10.689Z,102166.79
2018-12-24T12:59:38.059Z,102155.81
2018-12-24T13:02:05.629Z,102156.88
2018-12-24T13:04:33.004Z,102156.07
2018-12-24T13:06:59.674Z,102165.20
2018-12-24T13:09:27.702Z,102166.65
2018-12-24T13:11:54.979Z,102174.66
2018-12-24T13:14:23.488Z,102181.87
2018-12-24T13:16:51.802Z,102178.24
2018-12-24T13:19:19.602Z,102178.59
2018-12-24T13:21:46.276Z,102173.41
2018-12-24T13:24:13.340Z,102165.75
2018-12-24T13:26:40.281Z,102175.56
2018-12-24T13:29:07.815Z,102169.23
2018-12-24T13:31:34.888Z,102172.70
2018-12-24T13:34:01.837Z,102171.44
2018-12-24T13:36:29.025Z,102168.20
2018-12-24T13:38:55.734Z,102170.69
2018-12-24T13:41:23.190Z,102182.11
2018-12-24T13:43:50.871Z,102188.11
2018-12-24T13:46:17.811Z,102182.39
2018-12-24T13:48:44.822Z,102180.17
2018-12-24T13:51:11.495Z,102175.39
2018-12-24T13:53:41.957Z,102175.09
2018-12-24T13:56:07.907Z,102169.77
2018-12-24T13:58:34.583Z,102167.83
2018-12-24T14:01:02.119Z,102166.97
2018-12-24T14:03:30.018Z,102155.77
2018-12-24T14:05:57.056Z,102157.41
2018-12-24T14:08:24.878Z,102162.72
2018-12-24T14:10:51.778Z,102161.50
2018-12-24T14:13:19.793Z,102171.06
2018-12-24T14:15:47.171Z,102167.35
2018-12-24T14:18:14.892Z,102171.22
2018-12-24T14:20:42.523Z,102184.16
2018-12-24T14:23:10.069Z,102184.88
2018-12-24T14:25:38.366Z,102184.70
2018-12-24T14:28:06.530Z,102187.52
2018-12-24T14:30:34.395Z,102182.75
2018-12-24T14:33:05.558Z,102180.08
2018-12-24T14:35:32.874Z,102184.52
2018-12-24T14:37:59.827Z,102184.71
2018-12-24T14:40:27.592Z,102179.20
2018-12-24T14:42:55.769Z,102183.80
2018-12-24T14:45:23.838Z,102177.44
2018-12-24T14:47:50.756Z,102181.88
2018-12-24T14:50:17.476Z,102181.68
2018-12-24T14:52:44.138Z,102177.27
2018-12-24T14:55:11.693Z,102178.31
2018-12-24T14:57:38.653Z,102177.96
2018-12-24T15:00:06.188Z,102175.67
2018-12-24T15:02:33.823Z,102181.52
2018-12-24T15:05:01.845Z,102191.44
2018-12-24T15:07:29.224Z,102197.12
2018-12-24T15:09:56.913Z,102191.08
2018-12-24T15:12:25.133Z,102198.88
2018-12-24T15:14:52.455Z,102213.05
2018-12-24T15:17:19.248Z,102212.36
2018-12-24T15:19:46.276Z,102216.25
2018-12-24T15:22:13.108Z,102217.84
2018-12-24T15:24:39.775Z,102229.02
2018-12-24T15:27:06.888Z,102240.34
2018-12-24T15:29:34.342Z,102251.14
2018-12-24T15:32:01.386Z,102249.74
2018-12-24T15:34:28.544Z,102256.82
2018-12-24T15:36:56.432Z,102261.94
2018-12-24T15:39:24.001Z,102262.49
2018-12-24T15:41:51.233Z,102264.08
2018-12-24T15:44:18.689Z,102262.12
2018-12-24T15:46:45.382Z,102265.13
2018-12-24T15:49:12.108Z,102258.57
2018-12-24T15:51:38.786Z,102236.42
2018-12-24T15:54:06.169Z,102247.92
2018-12-24T15:56:33.220Z,102248.27
2018-12-24T15:59:00.982Z,102247.75
2018-12-24T16:01:27.644Z,102234.83
2018-12-24T16:03:54.334Z,102233.74
2018-12-24T16:06:21.011Z,102232.66
2018-12-24T16:08:48.350Z,102237.61
2018-12-24T16:11:15.599Z,102237.08
2018-12-24T16:13:43.249Z,102238.52
2018-12-24T16:16:09.915Z,102234.73
2018-12-24T16:18:37.113Z,102232.45
2018-12-24T16:21:03.808Z,102226.26
2018-12-24T16:23:30.720Z,102230.49
2018-12-24T16:25:57.665Z,102228.20
2018-12-24T16:28:24.329Z,102227.13
2018-12-24T16:30:51.596Z,102227.48
2018-12-24T16:33:18.277Z,102228.88
2018-12-24T16:35:45.770Z,102237.92
2018-12-24T16:38:13.747Z,102237.19
2018-12-24T16:40:40.826Z,102235.08
2018-12-24T16:43:08.045Z,102235.08
2018-12-24T16:45:35.793Z,102242.54
2018-12-24T16:48:02.830Z,102234.58
2018-12-24T16:50:30.296Z,102241.48
2018-12-24T16:52:57.739Z,102241.99
2018-12-24T16:55:25.011Z,102252.63
2018-12-24T16:57:52.262Z,102233.16
2018-12-24T17:00:19.303Z,102249.07
2018-12-24T17:02:46.910Z,102251.56
2018-12-24T17:05:13.815Z,102249.80
2018-12-24T17:07:41.493Z,102249.59
2018-12-24T17:10:08.177Z,102242.15
2018-12-24T17:12:35.361Z,102255.47
2018-12-24T17:15:02.961Z,102249.44
2018-12-24T17:17:30.574Z,102243.59
2018-12-24T17:19:57.883Z,102246.60
2018-12-24T17:22:25.115Z,102246.42
2018-12-24T17:24:53.138Z,102241.65
2018-12-24T17:27:20.311Z,102241.86
2018-12-24T17:29:47.381Z,102244.52
2018-12-24T17:32:14.292Z,102248.43
2018-12-24T17:34:41.843Z,102237.44
2018-12-24T17:37:08.886Z,102234.44
2018-12-24T17:39:35.943Z,102233.36
2018-12-24T17:42:02.928Z,102236.37
2018-12-24T17:44:29.921Z,102229.48
2018-12-24T17:46:57.386Z,102227.17
2018-12-24T17:49:24.906Z,102236.56
2018-12-24T17:51:52.009Z,102238.85
2018-12-24T17:54:19.766Z,102249.12
2018-12-24T17:56:48.467Z,102257.45
2018-12-24T17:59:15.130Z,102265.25
2018-12-24T18:01:42.144Z,102262.59
2018-12-24T18:04:09.307Z,102260.12
2018-12-24T18:06:35.999Z,102268.59
2018-12-24T18:09:05.191Z,102272.30
2018-12-24T18:11:32.604Z,102279.43
2018-12-24T18:14:00.234Z,102279.43
2018-12-24T18:16:27.602Z,102281.72
2018-12-24T18:18:55.081Z,102280.68
2018-12-24T18:21:21.866Z,102291.27
2018-12-24T18:23:49.026Z,102288.98
2018-12-24T18:26:16.302Z,102293.06
2018-12-24T18:28:43.602Z,102293.72
2018-12-24T18:31:10.530Z,102302.78
2018-12-24T18:33:38.293Z,102298.55
2018-12-24T18:36:05.691Z,102300.30
2018-12-24T18:38:32.737Z,102300.28
2018-12-24T18:40:59.775Z,102302.61
2018-12-24T18:43:27.005Z,102306.12
2018-12-24T18:45:54.519Z,102308.27
2018-12-24T18:48:21.242Z,102316.93
2018-12-24T18:50:48.588Z,102329.02
2018-12-24T18:53:15.502Z,102325.08
2018-12-24T18:55:42.582Z,102333.27
2018-12-24T18:58:09.259Z,102333.27
2018-12-24T19:00:36.547Z,102332.52
2018-12-24T19:03:03.846Z,102340.34
2018-12-24T19:05:30.526Z,102342.30
2018-12-24T19:07:57.717Z,102341.40
2018-12-24T19:10:25.289Z,102339.27
2018-12-24T19:12:52.319Z,102344.94
2018-12-24T19:15:20.902Z,102347.27
2018-12-24T19:17:48.493Z,102347.05
2018-12-24T19:20:15.184Z,102360.91
2018-12-24T19:22:42.229Z,102361.09
2018-12-24T19:25:08.911Z,102363.91
2018-12-24T19:27:36.561Z,102367.48
2018-12-24T19:30:04.665Z,102376.48
2018-12-24T19:32:32.908Z,102380.56
2018-12-24T19:34:59.660Z,102382.36
2018-12-24T19:37:26.573Z,102381.80
2018-12-24T19:39:54.377Z,102385.20
2018-12-24T19:42:21.790Z,102381.82
2018-12-24T19:44:48.450Z,102388.58
2018-12-24T19:47:15.394Z,102391.70
2018-12-24T19:49:42.299Z,102395.28
2018-12-24T19:52:09.195Z,102390.67
2018-12-24T19:54:36.145Z,102402.36
2018-12-24T19:57:04.200Z,102409.44
2018-12-24T19:59:31.502Z,102400.95
2018-12-24T20:01:58.216Z,102411.77
2018-12-24T20:04:25.332Z,102413.21
2018-12-24T20:06:52.689Z,102412.91
2018-12-24T20:09:20.050Z,102414.85
2018-12-24T20:11:46.716Z,102416.09
2018-12-24T20:14:13.627Z,102418.05
2018-12-24T20:16:40.321Z,102419.47
2018-12-24T20:19:07.607Z,102415.76
2018-12-24T20:21:34.278Z,102417.73
2018-12-24T20:24:01.621Z,102419.84
2018-12-24T20:26:29.173Z,102411.19
2018-12-24T20:28:55.845Z,102405.72
2018-12-24T20:31:23.199Z,102406.09
2018-12-24T20:33:49.873Z,102412.66
2018-12-24T20:36:16.810Z,102409.46
2018-12-24T20:38:45.866Z,102411.78
2018-12-24T20:41:13.838Z,102405.58
2018-12-24T20:43:40.780Z,102398.85
2018-12-24T20:46:07.858Z,102409.11
2018-12-24T20:48:34.536Z,102412.19
2018-12-24T20:51:01.701Z,102411.81
2018-12-24T20:53:29.478Z,102406.33
2018-12-24T20:55:56.700Z,102411.66
2018-12-24T20:58:23.653Z,102385.54
2018-12-24T21:00:50.710Z,102398.17
2018-12-24T21:03:18.687Z,102396.93
2018-12-24T21:05:46.007Z,102401.02
2018-12-24T21:08:13.282Z,102401.02
2018-12-24T21:10:40.639Z,102393.93
2018-12-24T21:13:07.367Z,102396.22
2018-12-24T21:15:34.423Z,102403.88
2018-12-24T21:18:02.273Z,102414.53
2018-12-24T21:20:28.990Z,102411.48
2018-12-24T21:22:56.053Z,102404.92
2018-12-24T21:25:24.363Z,102402.63
2018-12-24T21:27:51.041Z,102401.91
2018-12-24T21:30:18.108Z,102403.88
2018-12-24T21:32:45.602Z,102404.23
2018-12-24T21:35:12.534Z,102405.44
2018-12-24T21:37:39.833Z,102402.08
2018-12-24T21:40:06.927Z,102399.02
2018-12-24T21:42:33.609Z,102404.38
2018-12-24T21:45:01.388Z,102401.74
2018-12-24T21:47:28.357Z,102408.68
2018-12-24T21:49:56.347Z,102413.28
2018-12-24T21:52:23.637Z,102413.45
2018-12-24T21:54:51.063Z,102410.44
2018-12-24T21:57:18.557Z,102415.61
2018-12-24T21:59:45.973Z,102414.38
2018-12-24T22:02:12.636Z,102416.14
2018-12-24T22:04:39.318Z,102420.22
2018-12-24T22:07:07.135Z,102422.51
2018-12-24T22:09:34.135Z,102422.84
2018-12-24T22:12:02.141Z,102414.92
2018-12-24T22:14:29.829Z,102414.30
2018-12-24T22:16:57.369Z,102420.86
2018-12-24T22:19:24.093Z,102422.05
2018-12-24T22:21:50.774Z,102424.38
2018-12-24T22:24:18.889Z,102418.53
2018-12-24T22:26:46.098Z,102425.52
2018-12-24T22:29:13.829Z,102416.97
2018-12-24T22:31:41.382Z,102416.81
2018-12-24T22:34:08.693Z,102422.16
2018-12-24T22:36:36.100Z,102416.09
2018-12-24T22:39:05.556Z,102410.59
2018-12-24T22:41:32.787Z,102410.95
2018-12-24T22:44:00.261Z,102410.39
2018-12-24T22:46:27.139Z,102410.39
2018-12-24T22:48:54.287Z,102414.67
2018-12-24T22:51:21.323Z,102408.83
2018-12-24T22:53:50.909Z,102413.08
2018-12-24T22:56:18.928Z,102413.58
2018-12-24T22:58:45.634Z,102407.38
2018-12-24T23:01:14.992Z,102400.80
2018-12-24T23:03:43.217Z,102405.61
2018-12-24T23:06:09.955Z,102403.83
2018-12-24T23:08:37.423Z,102403.13
2018-12-24T23:11:04.305Z,102409.48
2018-12-24T23:13:31.387Z,102405.43
2018-12-24T23:15:58.494Z,102413.06
2018-12-24T23:18:26.429Z,102408.45
2018-12-24T23:20:53.478Z,102408.08
2018-12-24T23:23:20.431Z,102403.27
2018-12-24T23:25:47.298Z,102411.64
2018-12-24T23:28:14.327Z,102405.23
2018-12-24T23:30:41.655Z,102406.30
2018-12-24T23:33:09.002Z,102415.69
2018-12-24T23:35:35.947Z,102403.25
2018-12-24T23:38:04.964Z,102403.25
2018-12-24T23:40:32.221Z,102407.00
2018-12-24T23:42:59.350Z,102401.48
2018-12-24T23:45:27.130Z,102403.95
2018-12-24T23:47:54.381Z,102400.23
2018-12-24T23:50:21.738Z,102400.23
2018-12-24T23:52:49.186Z,102397.94
2018-12-24T23:55:15.874Z,102390.63
2018-12-24T23:57:43.100Z,102389.39
